METAR Data
IDs: Format: Raw Decoded Include TAF

Data at: 2103 UTC 01 Oct 2022

LIME 012050Z 01003KT 310V030 CAVOK 13/11 Q1017 NOSIG